createdAt,value
2017-02-01T00:00:55.563Z,99.99
2017-02-01T00:02:09.261Z,99.99
2017-02-01T00:03:23.608Z,99.99
2017-02-01T00:04:38.010Z,99.99
2017-02-01T00:05:52.350Z,99.99
2017-02-01T00:07:06.719Z,99.99
2017-02-01T00:08:20.433Z,99.99
2017-02-01T00:09:34.830Z,99.99
2017-02-01T00:10:49.175Z,99.99
2017-02-01T00:12:03.551Z,99.99
2017-02-01T00:13:18.005Z,99.99
2017-02-01T00:14:32.704Z,99.99
2017-02-01T00:15:47.058Z,99.99
2017-02-01T00:17:01.464Z,99.99
2017-02-01T00:18:15.831Z,99.99
2017-02-01T00:19:29.569Z,99.99
2017-02-01T00:20:43.285Z,99.99
2017-02-01T00:21:57.259Z,99.99
2017-02-01T00:23:11.626Z,99.99
2017-02-01T00:24:26.018Z,99.99
2017-02-01T00:25:39.750Z,99.99
2017-02-01T00:26:54.108Z,99.99
2017-02-01T00:28:07.848Z,99.99
2017-02-01T00:29:21.569Z,99.99
2017-02-01T00:30:35.915Z,99.99
2017-02-01T00:31:50.270Z,99.99
2017-02-01T00:33:04.637Z,99.99
2017-02-01T00:34:19.012Z,99.99
2017-02-01T00:35:33.367Z,99.99
2017-02-01T00:36:47.724Z,99.99
2017-02-01T00:38:02.085Z,99.99
2017-02-01T00:39:15.814Z,99.99
2017-02-01T00:40:30.176Z,99.99
2017-02-01T00:41:44.535Z,99.99
2017-02-01T00:42:58.908Z,99.99
2017-02-01T00:44:13.261Z,99.99
2017-02-01T00:45:26.970Z,99.99
2017-02-01T00:46:41.349Z,99.99
2017-02-01T00:47:55.703Z,99.99
2017-02-01T00:49:09.438Z,99.99
2017-02-01T00:50:23.143Z,99.99
2017-02-01T00:51:37.567Z,99.99
2017-02-01T00:52:52.212Z,99.99
2017-02-01T00:54:06.604Z,99.99
2017-02-01T00:55:21.019Z,99.99
2017-02-01T00:56:35.360Z,99.99
2017-02-01T00:57:49.718Z,99.99
2017-02-01T00:59:04.067Z,99.99
2017-02-01T01:00:18.436Z,99.99
2017-02-01T01:01:32.790Z,99.99
2017-02-01T01:02:47.183Z,99.99
2017-02-01T01:04:01.524Z,99.99
2017-02-01T01:05:15.959Z,99.99
2017-02-01T01:06:30.323Z,99.99
2017-02-01T01:07:44.708Z,99.99
2017-02-01T01:08:59.049Z,99.99
2017-02-01T01:10:13.396Z,99.99
2017-02-01T01:11:27.768Z,99.99
2017-02-01T01:12:42.139Z,99.99
2017-02-01T01:13:55.880Z,99.99
2017-02-01T01:15:10.299Z,99.99
2017-02-01T01:16:24.022Z,99.99
2017-02-01T01:17:38.396Z,99.99
2017-02-01T01:18:52.776Z,99.99
2017-02-01T01:20:07.138Z,99.99
2017-02-01T01:21:21.507Z,99.99
2017-02-01T01:22:35.882Z,99.99
2017-02-01T01:23:50.251Z,99.99
2017-02-01T01:25:04.576Z,99.99
2017-02-01T01:26:18.955Z,99.99
2017-02-01T01:27:33.323Z,99.99
2017-02-01T01:28:47.688Z,99.99
2017-02-01T01:30:02.077Z,99.99
2017-02-01T01:31:16.444Z,99.99
2017-02-01T01:32:30.158Z,99.99
2017-02-01T01:33:44.504Z,99.99
2017-02-01T01:34:58.853Z,99.99
2017-02-01T01:36:13.215Z,99.99
2017-02-01T01:37:27.577Z,99.99
2017-02-01T01:38:41.955Z,99.99
2017-02-01T01:39:56.322Z,99.99
2017-02-01T01:41:10.647Z,99.99
2017-02-01T01:42:24.521Z,99.99
2017-02-01T01:43:39.064Z,99.99
2017-02-01T01:44:53.436Z,99.99
2017-02-01T01:46:07.793Z,99.99
2017-02-01T01:47:21.531Z,99.99
2017-02-01T01:48:35.894Z,99.99
2017-02-01T01:49:50.252Z,99.99
2017-02-01T01:51:04.617Z,99.99
2017-02-01T01:52:18.977Z,99.99
2017-02-01T01:53:33.353Z,99.99
2017-02-01T01:54:47.720Z,99.99
2017-02-01T01:56:02.138Z,99.99
2017-02-01T01:57:16.509Z,99.99
2017-02-01T01:58:30.868Z,99.99
2017-02-01T01:59:45.259Z,99.99
2017-02-01T02:00:59.666Z,99.99
2017-02-01T02:02:14.074Z,99.99
2017-02-01T02:03:28.480Z,99.99
2017-02-01T02:04:42.901Z,99.99
2017-02-01T02:05:57.296Z,99.99
2017-02-01T02:07:11.968Z,99.99
2017-02-01T02:08:26.341Z,99.99
2017-02-01T02:09:40.707Z,99.99
2017-02-01T02:10:55.056Z,99.99
2017-02-01T02:12:09.441Z,99.99
2017-02-01T02:13:23.806Z,99.99
2017-02-01T02:14:38.143Z,99.99
2017-02-01T02:15:52.561Z,99.99
2017-02-01T02:17:06.927Z,99.99
2017-02-01T02:18:21.330Z,99.99
2017-02-01T02:19:35.667Z,99.99
2017-02-01T02:20:50.025Z,99.99
2017-02-01T02:22:04.377Z,99.99
2017-02-01T02:23:18.093Z,99.99
2017-02-01T02:24:32.471Z,99.99
2017-02-01T02:25:46.895Z,99.99
2017-02-01T02:27:01.304Z,99.99
2017-02-01T02:28:15.657Z,99.99
2017-02-01T02:29:30.081Z,99.99
2017-02-01T02:30:43.802Z,99.99
2017-02-01T02:31:58.143Z,99.99
2017-02-01T02:33:12.489Z,99.99
2017-02-01T02:34:26.222Z,99.99
2017-02-01T02:35:40.572Z,99.99
2017-02-01T02:36:54.928Z,99.99
2017-02-01T02:38:09.257Z,99.99
2017-02-01T02:39:23.601Z,99.99
2017-02-01T02:40:37.999Z,99.99
2017-02-01T02:41:52.385Z,99.99
2017-02-01T02:43:06.745Z,99.99
2017-02-01T02:44:21.138Z,99.99
2017-02-01T02:45:35.522Z,99.99
2017-02-01T02:46:49.942Z,99.99
2017-02-01T02:48:04.334Z,99.99
2017-02-01T02:49:18.671Z,99.99
2017-02-01T02:50:33.037Z,99.99
2017-02-01T02:51:47.421Z,99.99
2017-02-01T02:53:01.780Z,99.99
2017-02-01T02:54:15.505Z,99.99
2017-02-01T02:55:29.903Z,99.99
2017-02-01T02:56:44.268Z,99.99
2017-02-01T02:57:58.606Z,99.99
2017-02-01T02:59:12.965Z,99.99
2017-02-01T03:00:27.363Z,99.99
2017-02-01T03:01:41.747Z,99.99
2017-02-01T03:02:56.155Z,99.99
2017-02-01T03:04:10.514Z,99.99
2017-02-01T03:05:24.893Z,99.99
2017-02-01T03:06:39.272Z,99.99
2017-02-01T03:07:53.683Z,99.99
2017-02-01T03:09:07.418Z,99.99
2017-02-01T03:10:21.766Z,99.99
2017-02-01T03:11:36.133Z,99.99
2017-02-01T03:12:50.474Z,99.99
2017-02-01T03:14:04.856Z,99.99
2017-02-01T03:15:19.226Z,99.99
2017-02-01T03:16:32.929Z,99.99
2017-02-01T03:17:47.272Z,99.99
2017-02-01T03:19:01.605Z,99.99
2017-02-01T03:20:16.010Z,99.99
2017-02-01T03:21:29.745Z,99.99
2017-02-01T03:22:44.141Z,99.99
2017-02-01T03:23:58.500Z,99.99
2017-02-01T03:25:12.228Z,99.99
2017-02-01T03:26:26.601Z,99.99
2017-02-01T03:27:40.948Z,99.99
2017-02-01T03:28:55.315Z,99.99
2017-02-01T03:30:09.069Z,99.99
2017-02-01T03:31:23.475Z,99.99
2017-02-01T03:32:37.850Z,99.99
2017-02-01T03:33:52.200Z,99.99
2017-02-01T03:35:06.559Z,99.99
2017-02-01T03:36:20.959Z,99.99
2017-02-01T03:37:35.345Z,99.99
2017-02-01T03:38:49.723Z,99.99
2017-02-01T03:40:04.067Z,99.99
2017-02-01T03:41:18.473Z,99.99
2017-02-01T03:42:32.865Z,99.99
2017-02-01T03:43:47.240Z,99.99
2017-02-01T03:45:01.614Z,99.99
2017-02-01T03:46:15.967Z,99.99
2017-02-01T03:47:30.353Z,99.99
2017-02-01T03:48:44.763Z,99.99
2017-02-01T03:49:59.174Z,99.99
2017-02-01T03:51:12.259Z,99.99
2017-02-01T03:52:26.671Z,99.99
2017-02-01T03:53:41.015Z,99.99
2017-02-01T03:54:54.754Z,99.99
2017-02-01T03:56:09.196Z,99.99
2017-02-01T03:57:23.537Z,99.99
2017-02-01T03:58:37.908Z,99.99
2017-02-01T03:59:52.341Z,99.99
2017-02-01T04:01:06.757Z,99.99
2017-02-01T04:02:21.089Z,99.99
2017-02-01T04:03:35.447Z,99.99
2017-02-01T04:04:49.833Z,99.99
2017-02-01T04:06:04.212Z,99.99
2017-02-01T04:07:17.965Z,99.99
2017-02-01T04:08:31.624Z,99.99
2017-02-01T04:09:46.023Z,99.99
2017-02-01T04:11:00.420Z,99.99
2017-02-01T04:12:14.798Z,99.99
2017-02-01T04:13:29.170Z,99.99
2017-02-01T04:14:43.513Z,99.99
2017-02-01T04:15:57.900Z,99.99
2017-02-01T04:17:10.999Z,99.99
2017-02-01T04:18:25.582Z,99.99
2017-02-01T04:19:39.935Z,99.99
2017-02-01T04:20:54.320Z,99.99
2017-02-01T04:22:08.690Z,99.99
2017-02-01T04:23:23.053Z,99.99
2017-02-01T04:24:37.417Z,99.99
2017-02-01T04:25:51.791Z,99.99
2017-02-01T04:27:05.503Z,99.99
2017-02-01T04:28:19.864Z,99.99
2017-02-01T04:29:34.243Z,99.99
2017-02-01T04:30:48.595Z,99.99
2017-02-01T04:32:02.990Z,99.99
2017-02-01T04:33:17.356Z,99.99
2017-02-01T04:34:31.774Z,99.99
2017-02-01T04:35:46.142Z,99.99
2017-02-01T04:37:00.493Z,99.99
2017-02-01T04:38:14.866Z,99.99
2017-02-01T04:39:29.262Z,99.99
2017-02-01T04:40:43.620Z,99.99
2017-02-01T04:41:57.965Z,99.99
2017-02-01T04:43:12.359Z,99.99
2017-02-01T04:44:26.787Z,99.99
2017-02-01T04:45:41.130Z,99.99
2017-02-01T04:46:56.607Z,99.99
2017-02-01T04:48:13.181Z,99.99
2017-02-01T04:49:27.554Z,99.99
2017-02-01T04:50:41.910Z,99.99
2017-02-01T04:51:56.296Z,99.99
2017-02-01T04:53:10.654Z,99.99
2017-02-01T04:54:24.987Z,99.99
2017-02-01T04:55:39.396Z,99.99
2017-02-01T04:56:53.739Z,99.99
2017-02-01T04:58:08.142Z,99.99
2017-02-01T04:59:21.859Z,99.99
2017-02-01T05:00:35.598Z,99.99
2017-02-01T05:01:49.972Z,99.99
2017-02-01T05:03:04.325Z,99.99
2017-02-01T05:04:18.717Z,99.99
2017-02-01T05:05:32.444Z,99.99
2017-02-01T05:06:46.811Z,99.99
2017-02-01T05:08:01.187Z,99.99
2017-02-01T05:09:15.554Z,99.99
2017-02-01T05:10:29.918Z,99.99
2017-02-01T05:11:44.337Z,99.99
2017-02-01T05:12:58.704Z,99.99
2017-02-01T05:14:13.021Z,99.99
2017-02-01T05:15:27.412Z,99.99
2017-02-01T05:16:41.158Z,99.99
2017-02-01T05:17:55.559Z,99.99
2017-02-01T05:19:09.896Z,99.99
2017-02-01T05:20:24.223Z,99.99
2017-02-01T05:21:37.915Z,99.99
2017-02-01T05:22:52.267Z,99.99
2017-02-01T05:24:06.682Z,99.99
2017-02-01T05:25:21.060Z,99.99
2017-02-01T05:26:35.408Z,99.99
2017-02-01T05:27:49.761Z,99.99
2017-02-01T05:29:04.138Z,99.99
2017-02-01T05:30:18.568Z,99.99
2017-02-01T05:31:32.980Z,99.99
2017-02-01T05:32:47.360Z,99.99
2017-02-01T05:34:01.715Z,99.99
2017-02-01T05:35:16.082Z,99.99
2017-02-01T05:36:30.449Z,99.99
2017-02-01T05:37:44.813Z,99.99
2017-02-01T05:38:59.159Z,99.99
2017-02-01T05:40:13.516Z,99.99
2017-02-01T05:41:27.882Z,99.99
2017-02-01T05:42:42.227Z,99.99
2017-02-01T05:43:56.598Z,99.99
2017-02-01T05:45:09.680Z,99.99
2017-02-01T05:46:24.043Z,99.99
2017-02-01T05:47:37.760Z,99.99
2017-02-01T05:48:52.156Z,99.99
2017-02-01T05:50:06.534Z,99.99
2017-02-01T05:51:20.933Z,99.99
2017-02-01T05:52:34.639Z,99.99
2017-02-01T05:53:48.974Z,99.99
2017-02-01T05:55:03.383Z,99.99
2017-02-01T05:56:17.739Z,99.99
2017-02-01T05:57:31.472Z,99.99
2017-02-01T05:58:45.814Z,99.99
2017-02-01T06:00:00.210Z,99.99
2017-02-01T06:01:14.585Z,99.99
2017-02-01T06:02:28.968Z,99.99
2017-02-01T06:03:43.410Z,99.99
2017-02-01T06:04:57.773Z,99.99
2017-02-01T06:06:11.518Z,99.99
2017-02-01T06:07:25.857Z,99.99
2017-02-01T06:08:40.225Z,99.99
2017-02-01T06:09:54.609Z,99.99
2017-02-01T06:11:08.943Z,99.99
2017-02-01T06:12:23.489Z,99.99
2017-02-01T06:13:36.581Z,99.99
2017-02-01T06:14:50.942Z,99.99
2017-02-01T06:16:05.301Z,99.99
2017-02-01T06:17:18.980Z,99.99
2017-02-01T06:18:33.339Z,99.99
2017-02-01T06:19:47.707Z,99.99
2017-02-01T06:21:02.137Z,99.99
2017-02-01T06:22:16.519Z,99.99
2017-02-01T06:23:30.945Z,99.99
2017-02-01T06:24:45.343Z,99.99
2017-02-01T06:25:59.693Z,99.99
2017-02-01T06:27:13.461Z,99.99
2017-02-01T06:28:27.847Z,99.99
2017-02-01T06:29:42.240Z,99.99
2017-02-01T06:30:56.581Z,99.99
2017-02-01T06:32:10.299Z,99.99
2017-02-01T06:33:24.692Z,99.99
2017-02-01T06:34:39.166Z,99.99
2017-02-01T06:35:53.587Z,99.99
2017-02-01T06:37:07.930Z,99.99
2017-02-01T06:38:21.036Z,99.99
2017-02-01T06:39:35.393Z,99.99
2017-02-01T06:40:49.781Z,99.99
2017-02-01T06:42:04.119Z,99.99
2017-02-01T06:43:18.490Z,99.99
2017-02-01T06:44:32.868Z,99.99
2017-02-01T06:45:47.212Z,99.99
2017-02-01T06:47:01.574Z,99.99
2017-02-01T06:48:15.310Z,99.99
2017-02-01T06:49:29.671Z,99.99
2017-02-01T06:50:44.109Z,99.99
2017-02-01T06:51:58.475Z,99.99
2017-02-01T06:53:12.842Z,99.99
2017-02-01T06:54:27.227Z,99.99
2017-02-01T06:55:41.603Z,99.99
2017-02-01T06:56:55.970Z,99.99
2017-02-01T06:58:10.379Z,99.99
2017-02-01T06:59:24.784Z,99.99
2017-02-01T07:00:39.170Z,99.99
2017-02-01T07:01:52.909Z,99.99
2017-02-01T07:03:07.295Z,99.99
2017-02-01T07:04:21.705Z,99.99
2017-02-01T07:05:36.088Z,99.99
2017-02-01T07:06:50.472Z,99.99
2017-02-01T07:08:04.819Z,99.99
2017-02-01T07:09:19.211Z,99.99
2017-02-01T07:10:33.622Z,99.99
2017-02-01T07:11:47.967Z,99.99
2017-02-01T07:13:02.324Z,99.99
2017-02-01T07:14:16.034Z,99.99
2017-02-01T07:15:30.413Z,99.99
2017-02-01T07:16:44.140Z,99.99
2017-02-01T07:17:58.504Z,99.99
2017-02-01T07:19:12.856Z,99.99
2017-02-01T07:20:27.237Z,99.99
2017-02-01T07:21:40.983Z,99.99
2017-02-01T07:22:55.370Z,99.99
2017-02-01T07:24:09.751Z,99.99
2017-02-01T07:25:24.107Z,99.99
2017-02-01T07:26:38.492Z,99.99
2017-02-01T07:27:52.838Z,99.99
2017-02-01T07:29:07.205Z,99.99
2017-02-01T07:30:21.554Z,99.99
2017-02-01T07:31:35.904Z,99.99
2017-02-01T07:32:49.607Z,99.99
2017-02-01T07:34:03.995Z,99.99
2017-02-01T07:35:17.710Z,99.99
2017-02-01T07:36:32.081Z,99.99
2017-02-01T07:37:46.470Z,99.99
2017-02-01T07:39:00.838Z,99.99
2017-02-01T07:40:14.543Z,99.99
2017-02-01T07:41:28.925Z,99.99
2017-02-01T07:42:43.305Z,99.99
2017-02-01T07:43:57.692Z,99.99
2017-02-01T07:45:10.780Z,99.99
2017-02-01T07:46:25.144Z,99.99
2017-02-01T07:47:39.563Z,99.99
2017-02-01T07:48:53.290Z,99.99
2017-02-01T07:50:07.683Z,99.99
2017-02-01T07:51:22.089Z,99.99
2017-02-01T07:52:36.467Z,99.99
2017-02-01T07:53:51.045Z,99.99
2017-02-01T07:55:04.792Z,99.99
2017-02-01T07:56:19.203Z,99.99
2017-02-01T07:57:33.563Z,99.99
2017-02-01T07:58:47.942Z,99.99
2017-02-01T08:00:02.355Z,99.99
2017-02-01T08:01:16.736Z,99.99
2017-02-01T08:02:31.111Z,99.99
2017-02-01T08:03:45.511Z,99.99
2017-02-01T08:05:00.046Z,99.99
2017-02-01T08:06:14.387Z,99.99
2017-02-01T08:07:28.760Z,99.99
2017-02-01T08:08:43.114Z,99.99
2017-02-01T08:09:57.450Z,99.99
2017-02-01T08:11:11.141Z,99.99
2017-02-01T08:12:25.701Z,99.99
2017-02-01T08:13:40.132Z,99.99
2017-02-01T08:14:54.503Z,99.99
2017-02-01T08:16:08.894Z,99.99
2017-02-01T08:17:23.272Z,99.99
2017-02-01T08:18:36.996Z,99.99
2017-02-01T08:19:51.422Z,99.99
2017-02-01T08:21:05.810Z,99.99
2017-02-01T08:22:20.177Z,99.99
2017-02-01T08:23:34.553Z,99.99
2017-02-01T08:24:48.953Z,99.99
2017-02-01T08:26:03.343Z,99.99
2017-02-01T08:27:17.746Z,99.99
2017-02-01T08:28:32.150Z,99.99
2017-02-01T08:29:46.506Z,99.99
2017-02-01T08:31:00.265Z,99.99
2017-02-01T08:32:14.619Z,99.99
2017-02-01T08:33:28.991Z,99.99
2017-02-01T08:34:43.381Z,99.99
2017-02-01T08:35:57.113Z,99.99
2017-02-01T08:37:11.471Z,99.99
2017-02-01T08:38:25.831Z,99.99
2017-02-01T08:39:39.522Z,99.99
2017-02-01T08:40:53.881Z,99.99
2017-02-01T08:42:08.268Z,99.99
2017-02-01T08:43:22.043Z,99.99
2017-02-01T08:44:36.450Z,99.99
2017-02-01T08:45:51.034Z,99.99
2017-02-01T08:47:05.894Z,99.99
2017-02-01T08:48:20.310Z,99.99
2017-02-01T08:49:34.687Z,99.99
2017-02-01T08:50:49.086Z,99.99
2017-02-01T08:52:03.446Z,99.99
2017-02-01T08:53:17.874Z,99.99
2017-02-01T08:54:32.271Z,99.99
2017-02-01T08:55:46.669Z,99.99
2017-02-01T08:57:01.047Z,99.99
2017-02-01T08:58:15.410Z,99.99
2017-02-01T08:59:29.782Z,99.99
2017-02-01T09:00:44.145Z,99.99
2017-02-01T09:01:58.481Z,99.99
2017-02-01T09:03:12.177Z,99.99
2017-02-01T09:04:26.574Z,99.99
2017-02-01T09:05:40.933Z,99.99
2017-02-01T09:06:55.286Z,99.99
2017-02-01T09:08:09.653Z,99.99
2017-02-01T09:09:24.044Z,99.99
2017-02-01T09:10:38.446Z,99.99
2017-02-01T09:11:52.831Z,99.99
2017-02-01T09:13:07.228Z,99.99
2017-02-01T09:14:21.608Z,99.99
2017-02-01T09:15:35.359Z,99.99
2017-02-01T09:16:49.092Z,99.99
2017-02-01T09:18:03.506Z,99.99
2017-02-01T09:19:17.861Z,99.99
2017-02-01T09:20:32.200Z,99.99
2017-02-01T09:21:46.570Z,99.99
2017-02-01T09:23:00.930Z,99.99
2017-02-01T09:24:15.257Z,99.99
2017-02-01T09:25:28.976Z,99.99
2017-02-01T09:26:42.680Z,99.99
2017-02-01T09:27:57.073Z,99.99
2017-02-01T09:29:10.177Z,99.99
2017-02-01T09:30:23.892Z,99.99
2017-02-01T09:31:37.597Z,99.99
2017-02-01T09:32:51.967Z,99.99
2017-02-01T09:34:06.359Z,99.99
2017-02-01T09:35:20.104Z,99.99
2017-02-01T09:36:34.439Z,99.99
2017-02-01T09:37:48.828Z,99.99
2017-02-01T09:39:03.203Z,99.99
2017-02-01T09:40:16.933Z,99.99
2017-02-01T09:41:31.283Z,99.99
2017-02-01T09:42:45.675Z,99.99
2017-02-01T09:44:00.080Z,99.99
2017-02-01T09:45:13.795Z,99.99
2017-02-01T09:46:28.161Z,99.99
2017-02-01T09:47:42.540Z,99.99
2017-02-01T09:48:56.929Z,99.99
2017-02-01T09:50:11.316Z,99.99
2017-02-01T09:51:25.664Z,99.99
2017-02-01T09:52:40.061Z,99.99
2017-02-01T09:53:54.438Z,99.99
2017-02-01T09:55:08.815Z,99.99
2017-02-01T09:56:23.192Z,99.99
2017-02-01T09:57:37.584Z,99.99
2017-02-01T09:58:51.960Z,99.99
2017-02-01T10:00:05.022Z,99.99
2017-02-01T10:01:18.744Z,99.99
2017-02-01T10:02:33.108Z,99.99
2017-02-01T10:03:47.487Z,99.99
2017-02-01T10:05:01.205Z,99.99
2017-02-01T10:06:15.584Z,99.99
2017-02-01T10:07:29.952Z,99.99
2017-02-01T10:08:43.003Z,99.99
2017-02-01T10:09:57.396Z,99.99
2017-02-01T10:11:10.458Z,99.99
2017-02-01T10:12:24.805Z,99.99
2017-02-01T10:13:39.202Z,99.99
2017-02-01T10:14:53.541Z,99.99
2017-02-01T10:16:07.294Z,99.99
2017-02-01T10:17:21.011Z,99.99
2017-02-01T10:18:34.780Z,99.99
2017-02-01T10:19:49.176Z,99.99
2017-02-01T10:21:03.583Z,99.99
2017-02-01T10:22:17.974Z,99.99
2017-02-01T10:23:32.383Z,99.99
2017-02-01T10:24:46.794Z,99.99
2017-02-01T10:26:01.214Z,99.99
2017-02-01T10:27:14.942Z,99.99
2017-02-01T10:28:29.341Z,99.99
2017-02-01T10:29:43.721Z,99.99
2017-02-01T10:30:58.088Z,99.99
2017-02-01T10:32:12.460Z,99.99
2017-02-01T10:33:26.817Z,99.99
2017-02-01T10:34:40.530Z,99.99
2017-02-01T10:35:54.885Z,99.99
2017-02-01T10:37:09.265Z,99.99
2017-02-01T10:38:23.632Z,99.99
2017-02-01T10:39:37.999Z,99.99
2017-02-01T10:40:52.363Z,99.99
2017-02-01T10:42:06.759Z,99.99
2017-02-01T10:43:21.111Z,99.99
2017-02-01T10:44:35.465Z,99.99
2017-02-01T10:45:49.854Z,99.99
2017-02-01T10:47:04.236Z,99.99
2017-02-01T10:48:17.349Z,99.99
2017-02-01T10:49:31.744Z,99.99
2017-02-01T10:50:46.100Z,99.99
2017-02-01T10:51:59.818Z,98.97
2017-02-01T10:53:14.175Z,98.87
2017-02-01T10:54:28.532Z,99.26
2017-02-01T10:55:42.302Z,98.44
2017-02-01T10:56:56.686Z,97.19
2017-02-01T10:58:09.734Z,95.35
2017-02-01T10:59:23.467Z,96.8
2017-02-01T11:00:37.845Z,96.17
2017-02-01T11:01:52.213Z,95.78
2017-02-01T11:03:06.560Z,95.4
2017-02-01T11:04:20.964Z,96.36
2017-02-01T11:05:35.331Z,94.43
2017-02-01T11:06:49.690Z,93.85
2017-02-01T11:08:03.416Z,95.78
2017-02-01T11:09:17.826Z,95.68
2017-02-01T11:10:32.179Z,96.41
2017-02-01T11:11:46.581Z,94.77
2017-02-01T11:13:00.944Z,95.16
2017-02-01T11:14:15.348Z,95.54
2017-02-01T11:15:29.725Z,95.54
2017-02-01T11:16:44.096Z,95.74
2017-02-01T11:17:58.465Z,95.74
2017-02-01T11:19:12.851Z,95.11
2017-02-01T11:20:26.600Z,94.14
2017-02-01T11:21:40.973Z,93.71
2017-02-01T11:22:55.378Z,92.65
2017-02-01T11:24:09.097Z,91
2017-02-01T11:25:23.479Z,91.43
2017-02-01T11:26:37.236Z,90.56
2017-02-01T11:27:51.629Z,90.27
2017-02-01T11:29:06.227Z,90.47
2017-02-01T11:30:21.186Z,91.87
2017-02-01T11:31:35.565Z,91.33
2017-02-01T11:32:49.979Z,90.08
2017-02-01T11:34:03.690Z,90.08
2017-02-01T11:35:18.116Z,89.01
2017-02-01T11:36:32.487Z,88.24
2017-02-01T11:37:46.848Z,88.63
2017-02-01T11:39:01.228Z,89.01
2017-02-01T11:40:14.940Z,88.82
2017-02-01T11:41:29.349Z,88.57
2017-02-01T11:42:48.429Z,89.25
2017-02-01T11:44:05.560Z,89.15
2017-02-01T11:45:19.320Z,89.39
2017-02-01T11:46:33.694Z,89.59
2017-02-01T11:47:48.075Z,86.78
2017-02-01T11:49:02.471Z,88.19
2017-02-01T11:50:16.851Z,87.81
2017-02-01T11:51:31.220Z,87.51
2017-02-01T11:52:45.603Z,88.73
2017-02-01T11:53:59.975Z,88.15
2017-02-01T11:55:14.394Z,88.63
2017-02-01T11:56:28.800Z,89.01
2017-02-01T11:57:43.242Z,86.83
2017-02-01T11:58:57.802Z,88.05
2017-02-01T12:00:10.914Z,87.81
2017-02-01T12:01:25.281Z,87.13
2017-02-01T12:02:39.652Z,89.25
2017-02-01T12:03:54.005Z,87.71
2017-02-01T12:05:08.389Z,88.39
2017-02-01T12:06:21.447Z,88.57
2017-02-01T12:07:35.856Z,88.29
2017-02-01T12:08:49.573Z,87.9
2017-02-01T12:10:03.956Z,87.46
2017-02-01T12:11:18.309Z,84.27
2017-02-01T12:12:32.044Z,84.41
2017-02-01T12:13:45.754Z,85.08
2017-02-01T12:15:00.122Z,85.42
2017-02-01T12:16:13.831Z,85.42
2017-02-01T12:17:28.211Z,84.89
2017-02-01T12:18:42.591Z,84.11
2017-02-01T12:19:56.304Z,83.58
2017-02-01T12:21:10.048Z,84.35
2017-02-01T12:22:24.443Z,83.96
2017-02-01T12:23:38.856Z,83.44
2017-02-01T12:24:53.258Z,84.89
2017-02-01T12:26:07.642Z,84.79
2017-02-01T12:27:22.027Z,82.95
2017-02-01T12:28:35.779Z,83.92
2017-02-01T12:29:50.205Z,84.36
2017-02-01T12:31:04.566Z,85.24
2017-02-01T12:32:18.955Z,84.94
2017-02-01T12:33:32.729Z,84.66
2017-02-01T12:34:47.094Z,84.11
2017-02-01T12:36:01.474Z,84.6
2017-02-01T12:37:15.228Z,84.41
2017-02-01T12:38:29.592Z,81.35
2017-02-01T12:39:43.935Z,82.8
2017-02-01T12:40:58.589Z,81.64
2017-02-01T12:42:12.831Z,81.05
2017-02-01T12:43:26.527Z,82.12
2017-02-01T12:44:40.888Z,81.73
2017-02-01T12:45:54.658Z,80.19
2017-02-01T12:47:08.397Z,80.09
2017-02-01T12:48:21.507Z,80.22
2017-02-01T12:49:35.915Z,80.9
2017-02-01T12:50:50.318Z,77.94
2017-02-01T12:52:05.965Z,77.26
2017-02-01T12:53:19.722Z,77.39
2017-02-01T12:54:32.832Z,77.06
2017-02-01T12:55:47.180Z,77.16
2017-02-01T12:57:01.666Z,77.88
2017-02-01T12:58:15.525Z,76.42
2017-02-01T12:59:29.965Z,76.91
2017-02-01T13:00:44.399Z,76.91
2017-02-01T13:01:58.115Z,75.49
2017-02-01T13:03:11.810Z,75.49
2017-02-01T13:04:24.860Z,74.68
2017-02-01T13:05:39.343Z,75.36
2017-02-01T13:06:52.414Z,75.36
2017-02-01T13:08:06.119Z,76.81
2017-02-01T13:09:20.459Z,74.39
2017-02-01T13:10:34.803Z,74.13
2017-02-01T13:11:48.509Z,73.26
2017-02-01T13:13:02.832Z,73.94
2017-02-01T13:14:17.195Z,72.77
2017-02-01T13:15:31.553Z,73.26
2017-02-01T13:16:46.533Z,72.23
2017-02-01T13:18:00.238Z,71.39
2017-02-01T13:19:14.609Z,69.29
2017-02-01T13:20:28.970Z,68.35
2017-02-01T13:21:43.312Z,70.94
2017-02-01T13:22:57.636Z,71
2017-02-01T13:24:12.015Z,71.06
2017-02-01T13:25:25.734Z,72.65
2017-02-01T13:26:39.428Z,73.55
2017-02-01T13:27:53.118Z,74.04
2017-02-01T13:29:07.454Z,76.04
2017-02-01T13:30:21.830Z,76.14
2017-02-01T13:31:35.537Z,75.65
2017-02-01T13:32:49.858Z,75.07
2017-02-01T13:34:03.604Z,72.09
2017-02-01T13:35:17.301Z,75.3
2017-02-01T13:36:31.016Z,73.61
2017-02-01T13:37:45.324Z,73.9
2017-02-01T13:38:59.681Z,73.03
2017-02-01T13:40:14.012Z,73.61
2017-02-01T13:41:28.399Z,74.68
2017-02-01T13:42:42.751Z,73.42
2017-02-01T13:43:57.150Z,73.26
2017-02-01T13:45:11.499Z,72.39
2017-02-01T13:46:25.214Z,72.13
2017-02-01T13:47:39.555Z,72.03
2017-02-01T13:48:53.954Z,69.93
2017-02-01T13:50:08.356Z,69.19
2017-02-01T13:51:22.088Z,70.36
2017-02-01T13:52:36.438Z,69.25
2017-02-01T13:53:50.777Z,71.84
2017-02-01T13:55:05.116Z,70.67
2017-02-01T13:56:18.821Z,70.97
2017-02-01T13:57:31.899Z,70.48
2017-02-01T13:58:46.258Z,70.87
2017-02-01T14:00:00.583Z,70.48
2017-02-01T14:01:14.959Z,70.87
2017-02-01T14:02:29.317Z,72.13
2017-02-01T14:03:43.680Z,71.16
2017-02-01T14:04:58.036Z,71.32
2017-02-01T14:06:12.363Z,70.15
2017-02-01T14:07:26.703Z,70.06
2017-02-01T14:08:41.092Z,70.29
2017-02-01T14:09:55.441Z,69.51
2017-02-01T14:11:09.137Z,69.51
2017-02-01T14:12:23.642Z,69.22
2017-02-01T14:13:38.043Z,68.57
2017-02-01T14:14:52.429Z,66.66
2017-02-01T14:16:06.803Z,67.15
2017-02-01T14:17:21.306Z,68.87
2017-02-01T14:18:35.688Z,70.61
2017-02-01T14:19:50.048Z,68.38
2017-02-01T14:21:04.382Z,69.06
2017-02-01T14:22:18.083Z,67.89
2017-02-01T14:23:31.806Z,67.44
2017-02-01T14:24:46.179Z,66.76
2017-02-01T14:26:00.545Z,66.08
2017-02-01T14:27:14.906Z,64.49
2017-02-01T14:28:28.080Z,64.13
2017-02-01T14:29:41.800Z,62.51
2017-02-01T14:30:56.163Z,60.91
2017-02-01T14:32:10.576Z,64.1
2017-02-01T14:33:24.390Z,64.84
2017-02-01T14:34:39.317Z,64.62
2017-02-01T14:35:53.687Z,65.01
2017-02-01T14:37:08.097Z,64.78
2017-02-01T14:38:21.782Z,65.04
2017-02-01T14:39:34.849Z,66.02
2017-02-01T14:40:49.214Z,65.92
2017-02-01T14:42:03.612Z,67.34
2017-02-01T14:43:17.314Z,67.24
2017-02-01T14:44:31.973Z,67.63
2017-02-01T14:45:45.699Z,68.02
2017-02-01T14:47:00.057Z,68.08
2017-02-01T14:48:14.413Z,65.95
2017-02-01T14:49:28.765Z,65.04
2017-02-01T14:50:43.124Z,64.98
2017-02-01T14:51:57.535Z,62.93
2017-02-01T14:53:11.919Z,62.67
2017-02-01T14:54:24.984Z,61.83
2017-02-01T14:55:38.671Z,61.73
2017-02-01T14:56:52.366Z,60.98
2017-02-01T14:58:06.699Z,61.5
2017-02-01T14:59:21.078Z,61.4
2017-02-01T15:00:34.814Z,62.57
2017-02-01T15:01:49.159Z,62.54
2017-02-01T15:03:03.525Z,63.87
2017-02-01T15:04:17.856Z,63.58
2017-02-01T15:05:32.255Z,60.92
2017-02-01T15:06:45.952Z,63.32
2017-02-01T15:08:00.306Z,62.35
2017-02-01T15:09:13.987Z,60.41
2017-02-01T15:10:28.369Z,62.67
2017-02-01T15:11:42.711Z,62.26
2017-02-01T15:12:56.414Z,63.84
2017-02-01T15:14:10.146Z,65.3
2017-02-01T15:15:23.819Z,66.14
2017-02-01T15:16:38.159Z,66.53
2017-02-01T15:17:52.502Z,67.99
2017-02-01T15:19:06.847Z,68.83
2017-02-01T15:20:21.277Z,68.6
2017-02-01T15:21:35.634Z,67.92
2017-02-01T15:22:50.005Z,70.45
2017-02-01T15:24:04.352Z,67.14
2017-02-01T15:25:17.405Z,67.86
2017-02-01T15:26:31.754Z,68.83
2017-02-01T15:27:46.097Z,69.09
2017-02-01T15:29:00.447Z,68.6
2017-02-01T15:30:12.871Z,70.06
2017-02-01T15:31:26.569Z,67.92
2017-02-01T15:32:40.897Z,68.12
2017-02-01T15:33:55.254Z,67.44
2017-02-01T15:35:09.589Z,66.6
2017-02-01T15:36:23.297Z,66.99
2017-02-01T15:37:37.034Z,66.63
2017-02-01T15:38:51.399Z,64.78
2017-02-01T15:40:06.350Z,65.33
2017-02-01T15:41:20.835Z,65.82
2017-02-01T15:42:35.168Z,65.47
2017-02-01T15:43:49.561Z,65.11
2017-02-01T15:45:03.274Z,64.65
2017-02-01T15:46:17.627Z,64.46
2017-02-01T15:47:31.969Z,62.61
2017-02-01T15:48:46.323Z,63.23
2017-02-01T15:50:00.729Z,63.59
2017-02-01T15:51:15.096Z,63.49
2017-02-01T15:52:29.429Z,64.46
2017-02-01T15:53:44.212Z,65.3
2017-02-01T15:54:58.729Z,65.08
2017-02-01T15:56:12.448Z,66.08
2017-02-01T15:57:26.819Z,63.97